ADDS TAF Data INFO
IDs: Format: Raw Decoded Include METARs

Data at: 0511 UTC 21 Sep 2017

KTEB 210451Z 34007KT 10SM CLR 23/17 A2994 RMK AO2 SLP137 T02280172 402670222

KTEB 210201Z 2102/2124 35006KT P6SM SCT150 BKN250
  FM211400 35010G17KT P6SM FEW040 BKN250
  FM212200 36008KT P6SM SCT050 BKN250


KEWR 210451Z 34010KT 10SM SCT150 BKN250 23/17 A2994 RMK AO2 SLP139 T02330167 402720217

KEWR 210201Z 2102/2206 34008KT P6SM SCT150 BKN250
  FM211400 36011G18KT P6SM FEW040 BKN250
  FM212300 36010KT P6SM SCT050 BKN250


KMMU 210455Z AUTO 00000KT 10SM SCT050 20/18 A2996 RMK AO2

No TAF found for KMMU

KABE 210451Z 25004KT 10SM CLR 19/16 A2999 RMK AO2 SLP154 T01890161 403060183

KABE 202334Z 2100/2124 01004KT P6SM FEW250
  TEMPO 2109/2111 5SM BR
  FM211700 36007KT P6SM SCT200


KSWF 210445Z VRB05KT 10SM BKN055 21/19 A2999

KSWF 202343Z 2100/2206 02008KT P6SM SCT050 BKN250
  FM211600 36011KT P6SM FEW050 BKN250 AMD NOT SKED